sensor_id;sensor_type;location;lat;lon;timestamp;temperature;humidity
36384;DHT22;22418;51.210;6.976;2023-07-31T00:01:51;17.90;99.90
36384;DHT22;22418;51.210;6.976;2023-07-31T00:04:22;17.90;99.90
36384;DHT22;22418;51.210;6.976;2023-07-31T00:06:52;17.90;99.90
36384;DHT22;22418;51.210;6.976;2023-07-31T00:09:23;17.90;99.90
36384;DHT22;22418;51.210;6.976;2023-07-31T00:11:53;17.90;99.90
36384;DHT22;22418;51.210;6.976;2023-07-31T00:14:24;17.80;99.90
36384;DHT22;22418;51.210;6.976;2023-07-31T00:16:54;17.80;99.90
36384;DHT22;22418;51.210;6.976;2023-07-31T00:19:24;17.80;99.90
36384;DHT22;22418;51.210;6.976;2023-07-31T00:21:55;17.80;99.90
36384;DHT22;22418;51.210;6.976;2023-07-31T00:24:25;17.80;99.90
36384;DHT22;22418;51.210;6.976;2023-07-31T00:26:56;17.80;99.90
36384;DHT22;22418;51.210;6.976;2023-07-31T00:29:27;17.80;99.90
36384;DHT22;22418;51.210;6.976;2023-07-31T00:31:57;17.80;99.90
36384;DHT22;22418;51.210;6.976;2023-07-31T00:34:28;17.90;99.90
36384;DHT22;22418;51.210;6.976;2023-07-31T00:36:58;17.80;99.90
36384;DHT22;22418;51.210;6.976;2023-07-31T00:39:29;17.90;99.90
36384;DHT22;22418;51.210;6.976;2023-07-31T00:42:00;17.80;99.90
36384;DHT22;22418;51.210;6.976;2023-07-31T00:44:31;17.80;99.90
36384;DHT22;22418;51.210;6.976;2023-07-31T00:47:01;17.80;99.90
36384;DHT22;22418;51.210;6.976;2023-07-31T00:49:32;17.80;99.90
36384;DHT22;22418;51.210;6.976;2023-07-31T00:52:03;17.90;99.90
36384;DHT22;22418;51.210;6.976;2023-07-31T00:54:33;17.90;99.90
36384;DHT22;22418;51.210;6.976;2023-07-31T00:57:04;17.90;99.90
36384;DHT22;22418;51.210;6.976;2023-07-31T00:59:34;17.90;99.90
36384;DHT22;22418;51.210;6.976;2023-07-31T01:02:05;17.90;99.90
36384;DHT22;22418;51.210;6.976;2023-07-31T01:04:35;17.90;99.90
36384;DHT22;22418;51.210;6.976;2023-07-31T01:07:20;17.80;99.90
36384;DHT22;22418;51.210;6.976;2023-07-31T01:12:23;17.80;99.90
36384;DHT22;22418;51.210;6.976;2023-07-31T01:15:07;17.80;99.90
36384;DHT22;22418;51.210;6.976;2023-07-31T01:17:41;17.80;99.90
36384;DHT22;22418;51.210;6.976;2023-07-31T01:20:13;17.80;99.90
36384;DHT22;22418;51.210;6.976;2023-07-31T01:28:19;17.80;99.90
36384;DHT22;22418;51.210;6.976;2023-07-31T01:30:50;17.80;99.90
36384;DHT22;22418;51.210;6.976;2023-07-31T01:33:21;17.90;99.90
36384;DHT22;22418;51.210;6.976;2023-07-31T01:35:53;17.90;99.90
36384;DHT22;22418;51.210;6.976;2023-07-31T01:38:24;17.90;99.90
36384;DHT22;22418;51.210;6.976;2023-07-31T01:40:54;17.90;99.90
36384;DHT22;22418;51.210;6.976;2023-07-31T01:43:25;17.90;99.90
36384;DHT22;22418;51.210;6.976;2023-07-31T01:45:55;17.90;99.90
36384;DHT22;22418;51.210;6.976;2023-07-31T01:48:25;17.90;99.90
36384;DHT22;22418;51.210;6.976;2023-07-31T01:50:56;17.80;99.90
36384;DHT22;22418;51.210;6.976;2023-07-31T01:53:31;17.90;99.90
36384;DHT22;22418;51.210;6.976;2023-07-31T01:56:01;17.80;99.90
36384;DHT22;22418;51.210;6.976;2023-07-31T01:58:32;17.80;99.90
36384;DHT22;22418;51.210;6.976;2023-07-31T02:01:03;17.80;99.90
36384;DHT22;22418;51.210;6.976;2023-07-31T02:03:33;17.80;99.90
36384;DHT22;22418;51.210;6.976;2023-07-31T02:06:04;17.80;99.90
36384;DHT22;22418;51.210;6.976;2023-07-31T02:08:34;17.90;99.90
36384;DHT22;22418;51.210;6.976;2023-07-31T02:11:05;17.90;99.90
36384;DHT22;22418;51.210;6.976;2023-07-31T02:13:36;17.90;99.90
36384;DHT22;22418;51.210;6.976;2023-07-31T02:16:06;17.90;99.90
36384;DHT22;22418;51.210;6.976;2023-07-31T02:18:37;17.80;99.90
36384;DHT22;22418;51.210;6.976;2023-07-31T02:21:07;17.80;99.90
36384;DHT22;22418;51.210;6.976;2023-07-31T02:23:38;17.80;99.90
36384;DHT22;22418;51.210;6.976;2023-07-31T02:26:08;17.90;99.90
36384;DHT22;22418;51.210;6.976;2023-07-31T02:28:39;17.90;99.90
36384;DHT22;22418;51.210;6.976;2023-07-31T02:31:09;17.90;99.90
36384;DHT22;22418;51.210;6.976;2023-07-31T02:33:40;17.90;99.90
36384;DHT22;22418;51.210;6.976;2023-07-31T02:36:10;17.90;99.90
36384;DHT22;22418;51.210;6.976;2023-07-31T02:38:41;17.90;99.90
36384;DHT22;22418;51.210;6.976;2023-07-31T02:41:11;17.90;99.90
36384;DHT22;22418;51.210;6.976;2023-07-31T02:43:42;17.90;99.90
36384;DHT22;22418;51.210;6.976;2023-07-31T02:46:12;17.90;99.90
36384;DHT22;22418;51.210;6.976;2023-07-31T02:48:43;18.00;99.90
36384;DHT22;22418;51.210;6.976;2023-07-31T02:51:13;17.90;99.90
36384;DHT22;22418;51.210;6.976;2023-07-31T02:53:44;17.90;99.90
36384;DHT22;22418;51.210;6.976;2023-07-31T02:56:14;17.90;99.90
36384;DHT22;22418;51.210;6.976;2023-07-31T02:58:44;18.00;99.90
36384;DHT22;22418;51.210;6.976;2023-07-31T03:01:15;17.90;99.90
36384;DHT22;22418;51.210;6.976;2023-07-31T03:03:45;18.00;99.90
36384;DHT22;22418;51.210;6.976;2023-07-31T03:06:16;18.00;99.90
36384;DHT22;22418;51.210;6.976;2023-07-31T03:08:46;17.90;99.90
36384;DHT22;22418;51.210;6.976;2023-07-31T03:11:17;18.00;99.90
36384;DHT22;22418;51.210;6.976;2023-07-31T03:13:47;18.00;99.90
36384;DHT22;22418;51.210;6.976;2023-07-31T03:16:18;18.00;99.90
36384;DHT22;22418;51.210;6.976;2023-07-31T03:18:48;18.00;99.90
36384;DHT22;22418;51.210;6.976;2023-07-31T03:21:19;18.00;99.90
36384;DHT22;22418;51.210;6.976;2023-07-31T03:23:49;18.00;99.90
36384;DHT22;22418;51.210;6.976;2023-07-31T03:26:20;18.00;99.90
36384;DHT22;22418;51.210;6.976;2023-07-31T03:28:50;17.90;99.90
36384;DHT22;22418;51.210;6.976;2023-07-31T03:31:21;17.90;99.90
36384;DHT22;22418;51.210;6.976;2023-07-31T03:33:51;17.90;99.90
36384;DHT22;22418;51.210;6.976;2023-07-31T03:36:21;17.90;99.90
36384;DHT22;22418;51.210;6.976;2023-07-31T03:38:52;18.00;99.90
36384;DHT22;22418;51.210;6.976;2023-07-31T03:41:22;18.00;99.90
36384;DHT22;22418;51.210;6.976;2023-07-31T03:43:53;18.00;99.90
36384;DHT22;22418;51.210;6.976;2023-07-31T03:46:26;18.00;99.90
36384;DHT22;22418;51.210;6.976;2023-07-31T03:48:56;18.00;99.90
36384;DHT22;22418;51.210;6.976;2023-07-31T03:51:27;17.90;99.90
36384;DHT22;22418;51.210;6.976;2023-07-31T03:53:57;17.90;99.90
36384;DHT22;22418;51.210;6.976;2023-07-31T03:56:28;17.90;99.90
36384;DHT22;22418;51.210;6.976;2023-07-31T03:58:58;18.00;99.90
36384;DHT22;22418;51.210;6.976;2023-07-31T04:01:29;18.00;99.90
36384;DHT22;22418;51.210;6.976;2023-07-31T04:03:59;18.00;99.90
36384;DHT22;22418;51.210;6.976;2023-07-31T04:06:30;18.00;99.90
36384;DHT22;22418;51.210;6.976;2023-07-31T04:09:01;18.00;99.90
36384;DHT22;22418;51.210;6.976;2023-07-31T04:11:32;18.00;99.90
36384;DHT22;22418;51.210;6.976;2023-07-31T04:14:02;18.00;99.90
36384;DHT22;22418;51.210;6.976;2023-07-31T04:16:33;18.00;99.90
36384;DHT22;22418;51.210;6.976;2023-07-31T04:19:03;18.00;99.90
36384;DHT22;22418;51.210;6.976;2023-07-31T04:21:34;18.00;99.90
36384;DHT22;22418;51.210;6.976;2023-07-31T04:24:04;18.00;99.90
36384;DHT22;22418;51.210;6.976;2023-07-31T04:26:35;18.10;99.90
36384;DHT22;22418;51.210;6.976;2023-07-31T04:29:05;18.10;99.90
36384;DHT22;22418;51.210;6.976;2023-07-31T04:31:36;18.00;99.90
36384;DHT22;22418;51.210;6.976;2023-07-31T04:34:06;18.00;99.90
36384;DHT22;22418;51.210;6.976;2023-07-31T04:36:37;18.00;99.90
36384;DHT22;22418;51.210;6.976;2023-07-31T04:39:07;18.10;99.90
36384;DHT22;22418;51.210;6.976;2023-07-31T04:41:38;18.00;99.90
36384;DHT22;22418;51.210;6.976;2023-07-31T04:44:08;18.00;99.90
36384;DHT22;22418;51.210;6.976;2023-07-31T04:46:41;18.00;99.90
36384;DHT22;22418;51.210;6.976;2023-07-31T04:49:11;18.00;99.90
36384;DHT22;22418;51.210;6.976;2023-07-31T04:51:42;18.00;99.90
36384;DHT22;22418;51.210;6.976;2023-07-31T04:54:12;18.10;99.90
36384;DHT22;22418;51.210;6.976;2023-07-31T04:56:45;18.10;99.90
36384;DHT22;22418;51.210;6.976;2023-07-31T04:59:15;18.10;99.90
36384;DHT22;22418;51.210;6.976;2023-07-31T05:01:46;18.10;99.90
36384;DHT22;22418;51.210;6.976;2023-07-31T05:04:16;18.20;99.90
36384;DHT22;22418;51.210;6.976;2023-07-31T05:06:47;18.20;99.90
36384;DHT22;22418;51.210;6.976;2023-07-31T05:09:17;18.30;99.90
36384;DHT22;22418;51.210;6.976;2023-07-31T05:11:48;18.30;99.90
36384;DHT22;22418;51.210;6.976;2023-07-31T05:14:18;18.50;99.90
36384;DHT22;22418;51.210;6.976;2023-07-31T05:16:50;18.70;99.90
36384;DHT22;22418;51.210;6.976;2023-07-31T05:19:21;18.80;99.90
36384;DHT22;22418;51.210;6.976;2023-07-31T05:21:51;18.80;99.90
36384;DHT22;22418;51.210;6.976;2023-07-31T05:24:21;18.90;99.90
36384;DHT22;22418;51.210;6.976;2023-07-31T05:26:52;18.90;99.90
36384;DHT22;22418;51.210;6.976;2023-07-31T05:29:22;18.90;99.90
36384;DHT22;22418;51.210;6.976;2023-07-31T05:31:53;18.80;99.90
36384;DHT22;22418;51.210;6.976;2023-07-31T05:34:23;18.80;99.90
36384;DHT22;22418;51.210;6.976;2023-07-31T05:36:54;18.70;99.90
36384;DHT22;22418;51.210;6.976;2023-07-31T05:39:24;18.70;99.90
36384;DHT22;22418;51.210;6.976;2023-07-31T05:41:55;18.60;99.90
36384;DHT22;22418;51.210;6.976;2023-07-31T05:44:25;18.60;99.90
36384;DHT22;22418;51.210;6.976;2023-07-31T05:46:56;18.60;99.90
36384;DHT22;22418;51.210;6.976;2023-07-31T05:49:26;18.70;99.90
36384;DHT22;22418;51.210;6.976;2023-07-31T05:51:56;18.60;99.90
36384;DHT22;22418;51.210;6.976;2023-07-31T05:54:27;18.60;99.90
36384;DHT22;22418;51.210;6.976;2023-07-31T05:56:58;18.60;99.90
36384;DHT22;22418;51.210;6.976;2023-07-31T05:59:28;18.60;99.90
36384;DHT22;22418;51.210;6.976;2023-07-31T06:01:59;18.50;99.90
36384;DHT22;22418;51.210;6.976;2023-07-31T06:04:29;18.50;99.90
36384;DHT22;22418;51.210;6.976;2023-07-31T06:07:00;18.50;99.90
36384;DHT22;22418;51.210;6.976;2023-07-31T06:09:30;18.50;99.90
36384;DHT22;22418;51.210;6.976;2023-07-31T06:12:01;18.50;99.90
36384;DHT22;22418;51.210;6.976;2023-07-31T06:14:31;18.50;99.90
36384;DHT22;22418;51.210;6.976;2023-07-31T06:17:02;18.40;99.90
36384;DHT22;22418;51.210;6.976;2023-07-31T06:19:32;18.40;99.90
36384;DHT22;22418;51.210;6.976;2023-07-31T06:22:03;18.50;99.90
36384;DHT22;22418;51.210;6.976;2023-07-31T06:24:33;18.40;99.90
36384;DHT22;22418;51.210;6.976;2023-07-31T06:27:04;18.40;99.90
36384;DHT22;22418;51.210;6.976;2023-07-31T06:29:36;18.40;99.90
36384;DHT22;22418;51.210;6.976;2023-07-31T06:32:06;18.40;99.90
36384;DHT22;22418;51.210;6.976;2023-07-31T06:34:37;18.40;99.90
36384;DHT22;22418;51.210;6.976;2023-07-31T06:37:07;18.30;99.90
36384;DHT22;22418;51.210;6.976;2023-07-31T06:39:38;18.30;99.90
36384;DHT22;22418;51.210;6.976;2023-07-31T06:42:08;18.30;99.90
36384;DHT22;22418;51.210;6.976;2023-07-31T06:44:39;18.40;99.90
36384;DHT22;22418;51.210;6.976;2023-07-31T06:47:09;18.40;99.90
36384;DHT22;22418;51.210;6.976;2023-07-31T06:49:40;18.30;99.90
36384;DHT22;22418;51.210;6.976;2023-07-31T06:52:10;18.30;99.90
36384;DHT22;22418;51.210;6.976;2023-07-31T06:54:41;18.20;99.90
36384;DHT22;22418;51.210;6.976;2023-07-31T06:57:11;18.30;99.90
36384;DHT22;22418;51.210;6.976;2023-07-31T06:59:42;18.20;99.90
36384;DHT22;22418;51.210;6.976;2023-07-31T07:02:12;18.20;99.90
36384;DHT22;22418;51.210;6.976;2023-07-31T07:04:43;18.20;99.90
36384;DHT22;22418;51.210;6.976;2023-07-31T07:07:13;18.20;99.90
36384;DHT22;22418;51.210;6.976;2023-07-31T07:09:44;18.20;99.90
36384;DHT22;22418;51.210;6.976;2023-07-31T07:12:17;18.20;99.90
36384;DHT22;22418;51.210;6.976;2023-07-31T07:14:47;18.20;99.90
36384;DHT22;22418;51.210;6.976;2023-07-31T07:17:21;18.20;99.90
36384;DHT22;22418;51.210;6.976;2023-07-31T07:19:52;18.20;99.90
36384;DHT22;22418;51.210;6.976;2023-07-31T07:22:22;18.20;99.90
36384;DHT22;22418;51.210;6.976;2023-07-31T07:24:53;18.20;99.90
36384;DHT22;22418;51.210;6.976;2023-07-31T07:27:23;18.20;99.90
36384;DHT22;22418;51.210;6.976;2023-07-31T07:29:54;18.20;99.90
36384;DHT22;22418;51.210;6.976;2023-07-31T07:32:24;18.20;99.90
36384;DHT22;22418;51.210;6.976;2023-07-31T07:34:55;18.20;99.90
36384;DHT22;22418;51.210;6.976;2023-07-31T07:37:26;18.20;99.90
36384;DHT22;22418;51.210;6.976;2023-07-31T07:39:56;18.20;99.90
36384;DHT22;22418;51.210;6.976;2023-07-31T07:42:28;18.20;99.90
36384;DHT22;22418;51.210;6.976;2023-07-31T07:44:58;18.20;99.90
36384;DHT22;22418;51.210;6.976;2023-07-31T07:47:29;18.30;99.90
36384;DHT22;22418;51.210;6.976;2023-07-31T07:49:59;18.20;99.90
36384;DHT22;22418;51.210;6.976;2023-07-31T07:52:30;18.20;99.90
36384;DHT22;22418;51.210;6.976;2023-07-31T07:55:00;18.30;99.90
36384;DHT22;22418;51.210;6.976;2023-07-31T07:57:31;18.30;99.90
36384;DHT22;22418;51.210;6.976;2023-07-31T08:00:01;18.30;99.90
36384;DHT22;22418;51.210;6.976;2023-07-31T08:02:32;18.30;99.90
36384;DHT22;22418;51.210;6.976;2023-07-31T08:05:02;18.30;99.90
36384;DHT22;22418;51.210;6.976;2023-07-31T08:07:33;18.30;99.90
36384;DHT22;22418;51.210;6.976;2023-07-31T08:10:04;18.30;99.90
36384;DHT22;22418;51.210;6.976;2023-07-31T08:12:34;18.40;99.90
36384;DHT22;22418;51.210;6.976;2023-07-31T08:15:05;18.40;99.90
36384;DHT22;22418;51.210;6.976;2023-07-31T08:17:35;18.40;99.90
36384;DHT22;22418;51.210;6.976;2023-07-31T08:20:06;18.40;99.90
36384;DHT22;22418;51.210;6.976;2023-07-31T08:22:37;18.40;99.90
36384;DHT22;22418;51.210;6.976;2023-07-31T08:25:07;18.50;99.90
36384;DHT22;22418;51.210;6.976;2023-07-31T08:27:38;18.40;99.90
36384;DHT22;22418;51.210;6.976;2023-07-31T08:30:08;18.50;99.90
36384;DHT22;22418;51.210;6.976;2023-07-31T08:32:39;18.40;99.90
36384;DHT22;22418;51.210;6.976;2023-07-31T08:35:09;18.50;99.90
36384;DHT22;22418;51.210;6.976;2023-07-31T08:37:40;18.50;99.90
36384;DHT22;22418;51.210;6.976;2023-07-31T08:40:10;18.50;99.90
36384;DHT22;22418;51.210;6.976;2023-07-31T08:42:45;18.60;99.90
36384;DHT22;22418;51.210;6.976;2023-07-31T08:45:16;18.60;99.90
36384;DHT22;22418;51.210;6.976;2023-07-31T08:47:48;18.50;99.90
36384;DHT22;22418;51.210;6.976;2023-07-31T08:50:19;18.60;99.90
36384;DHT22;22418;51.210;6.976;2023-07-31T08:52:50;18.60;99.90
36384;DHT22;22418;51.210;6.976;2023-07-31T08:55:21;18.60;99.90
36384;DHT22;22418;51.210;6.976;2023-07-31T08:57:54;18.50;99.90
36384;DHT22;22418;51.210;6.976;2023-07-31T09:00:25;18.50;99.90
36384;DHT22;22418;51.210;6.976;2023-07-31T09:03:00;18.40;99.90
36384;DHT22;22418;51.210;6.976;2023-07-31T09:05:32;18.50;99.90
36384;DHT22;22418;51.210;6.976;2023-07-31T09:08:03;18.50;99.90
36384;DHT22;22418;51.210;6.976;2023-07-31T09:10:35;18.50;99.90
36384;DHT22;22418;51.210;6.976;2023-07-31T09:13:05;18.50;99.90
36384;DHT22;22418;51.210;6.976;2023-07-31T09:15:36;18.40;99.90
36384;DHT22;22418;51.210;6.976;2023-07-31T09:18:08;18.50;99.90
36384;DHT22;22418;51.210;6.976;2023-07-31T09:20:39;18.40;99.90
36384;DHT22;22418;51.210;6.976;2023-07-31T09:23:10;18.40;99.90
36384;DHT22;22418;51.210;6.976;2023-07-31T09:25:43;18.40;99.90
36384;DHT22;22418;51.210;6.976;2023-07-31T09:28:14;18.40;99.90
36384;DHT22;22418;51.210;6.976;2023-07-31T09:30:45;18.40;99.90
36384;DHT22;22418;51.210;6.976;2023-07-31T09:33:17;18.40;99.90
36384;DHT22;22418;51.210;6.976;2023-07-31T09:35:48;18.40;99.90
36384;DHT22;22418;51.210;6.976;2023-07-31T09:38:18;18.50;99.90
36384;DHT22;22418;51.210;6.976;2023-07-31T09:40:49;18.50;99.90
36384;DHT22;22418;51.210;6.976;2023-07-31T09:43:20;18.60;99.90
36384;DHT22;22418;51.210;6.976;2023-07-31T09:45:54;18.50;99.90
36384;DHT22;22418;51.210;6.976;2023-07-31T09:48:25;18.60;99.90
36384;DHT22;22418;51.210;6.976;2023-07-31T09:50:59;18.60;99.90
36384;DHT22;22418;51.210;6.976;2023-07-31T09:53:34;18.50;99.90
36384;DHT22;22418;51.210;6.976;2023-07-31T09:56:04;18.60;99.90
36384;DHT22;22418;51.210;6.976;2023-07-31T09:58:35;18.60;99.90
36384;DHT22;22418;51.210;6.976;2023-07-31T10:01:06;18.60;99.90
36384;DHT22;22418;51.210;6.976;2023-07-31T10:03:37;18.60;99.90
36384;DHT22;22418;51.210;6.976;2023-07-31T10:06:09;18.70;99.90
36384;DHT22;22418;51.210;6.976;2023-07-31T10:08:39;18.70;99.90
36384;DHT22;22418;51.210;6.976;2023-07-31T10:11:10;18.70;99.90
36384;DHT22;22418;51.210;6.976;2023-07-31T10:13:41;18.70;99.90
36384;DHT22;22418;51.210;6.976;2023-07-31T10:16:12;18.70;99.90
36384;DHT22;22418;51.210;6.976;2023-07-31T10:18:43;18.70;99.90
36384;DHT22;22418;51.210;6.976;2023-07-31T10:21:14;18.70;99.90
36384;DHT22;22418;51.210;6.976;2023-07-31T10:23:45;18.70;99.90
36384;DHT22;22418;51.210;6.976;2023-07-31T10:26:17;18.70;99.90
36384;DHT22;22418;51.210;6.976;2023-07-31T10:28:49;18.70;99.90
36384;DHT22;22418;51.210;6.976;2023-07-31T10:31:21;18.70;99.90
36384;DHT22;22418;51.210;6.976;2023-07-31T10:33:51;18.60;99.90
36384;DHT22;22418;51.210;6.976;2023-07-31T10:36:22;18.70;99.90
36384;DHT22;22418;51.210;6.976;2023-07-31T10:38:54;18.60;99.90
36384;DHT22;22418;51.210;6.976;2023-07-31T10:41:29;18.60;99.90
36384;DHT22;22418;51.210;6.976;2023-07-31T10:44:00;18.60;99.90
36384;DHT22;22418;51.210;6.976;2023-07-31T10:46:32;18.80;99.90
36384;DHT22;22418;51.210;6.976;2023-07-31T10:49:02;18.80;99.90
36384;DHT22;22418;51.210;6.976;2023-07-31T10:51:34;18.90;99.90
36384;DHT22;22418;51.210;6.976;2023-07-31T10:54:11;19.00;99.90
36384;DHT22;22418;51.210;6.976;2023-07-31T10:56:45;19.20;99.90
36384;DHT22;22418;51.210;6.976;2023-07-31T10:59:17;19.30;99.90
36384;DHT22;22418;51.210;6.976;2023-07-31T11:01:55;19.30;99.90
36384;DHT22;22418;51.210;6.976;2023-07-31T11:04:29;19.40;99.90
36384;DHT22;22418;51.210;6.976;2023-07-31T11:07:01;19.40;99.90
36384;DHT22;22418;51.210;6.976;2023-07-31T11:09:33;19.50;99.90
36384;DHT22;22418;51.210;6.976;2023-07-31T11:12:03;19.40;99.90
36384;DHT22;22418;51.210;6.976;2023-07-31T11:14:34;19.40;99.90
36384;DHT22;22418;51.210;6.976;2023-07-31T11:17:07;19.30;99.90
36384;DHT22;22418;51.210;6.976;2023-07-31T11:19:38;19.40;99.90
36384;DHT22;22418;51.210;6.976;2023-07-31T11:22:08;19.40;99.90
36384;DHT22;22418;51.210;6.976;2023-07-31T11:24:39;19.40;99.90
36384;DHT22;22418;51.210;6.976;2023-07-31T11:27:09;19.40;99.90
36384;DHT22;22418;51.210;6.976;2023-07-31T11:29:40;19.40;99.90
36384;DHT22;22418;51.210;6.976;2023-07-31T11:32:15;19.30;99.90
36384;DHT22;22418;51.210;6.976;2023-07-31T11:34:51;19.30;99.90
36384;DHT22;22418;51.210;6.976;2023-07-31T11:37:22;19.30;99.90
36384;DHT22;22418;51.210;6.976;2023-07-31T11:40:01;19.30;99.90
36384;DHT22;22418;51.210;6.976;2023-07-31T11:42:32;19.20;99.90
36384;DHT22;22418;51.210;6.976;2023-07-31T11:45:03;19.30;99.90
36384;DHT22;22418;51.210;6.976;2023-07-31T11:47:34;19.40;99.90
36384;DHT22;22418;51.210;6.976;2023-07-31T11:50:05;19.40;99.90
36384;DHT22;22418;51.210;6.976;2023-07-31T11:52:37;19.40;99.90
36384;DHT22;22418;51.210;6.976;2023-07-31T11:55:10;19.40;99.90
36384;DHT22;22418;51.210;6.976;2023-07-31T11:57:41;19.40;99.90
36384;DHT22;22418;51.210;6.976;2023-07-31T12:00:14;19.40;99.90
36384;DHT22;22418;51.210;6.976;2023-07-31T12:02:44;19.30;99.90
36384;DHT22;22418;51.210;6.976;2023-07-31T12:05:15;19.30;99.90
36384;DHT22;22418;51.210;6.976;2023-07-31T12:07:47;19.30;99.90
36384;DHT22;22418;51.210;6.976;2023-07-31T12:10:28;19.20;99.90
36384;DHT22;22418;51.210;6.976;2023-07-31T12:12:59;19.30;99.90
36384;DHT22;22418;51.210;6.976;2023-07-31T12:18:04;19.30;99.90
36384;DHT22;22418;51.210;6.976;2023-07-31T12:20:34;19.20;99.90
36384;DHT22;22418;51.210;6.976;2023-07-31T12:23:05;19.20;99.90
36384;DHT22;22418;51.210;6.976;2023-07-31T12:25:36;19.30;99.90
36384;DHT22;22418;51.210;6.976;2023-07-31T12:28:06;19.20;99.90
36384;DHT22;22418;51.210;6.976;2023-07-31T12:30:41;19.30;99.90
36384;DHT22;22418;51.210;6.976;2023-07-31T12:33:13;19.30;99.90
36384;DHT22;22418;51.210;6.976;2023-07-31T12:35:45;19.30;99.90
36384;DHT22;22418;51.210;6.976;2023-07-31T12:38:16;19.30;99.90
36384;DHT22;22418;51.210;6.976;2023-07-31T12:40:46;19.30;99.90
36384;DHT22;22418;51.210;6.976;2023-07-31T12:43:17;19.40;99.90
36384;DHT22;22418;51.210;6.976;2023-07-31T12:45:47;19.40;99.90
36384;DHT22;22418;51.210;6.976;2023-07-31T12:48:18;19.40;99.90
36384;DHT22;22418;51.210;6.976;2023-07-31T12:50:48;19.50;99.90
36384;DHT22;22418;51.210;6.976;2023-07-31T12:53:19;19.60;99.90
36384;DHT22;22418;51.210;6.976;2023-07-31T12:55:49;19.60;99.90
36384;DHT22;22418;51.210;6.976;2023-07-31T12:58:20;19.70;99.90
36384;DHT22;22418;51.210;6.976;2023-07-31T13:00:50;19.90;99.90
36384;DHT22;22418;51.210;6.976;2023-07-31T13:03:21;20.10;99.90
36384;DHT22;22418;51.210;6.976;2023-07-31T13:05:51;20.20;99.90
36384;DHT22;22418;51.210;6.976;2023-07-31T13:08:22;20.20;99.90
36384;DHT22;22418;51.210;6.976;2023-07-31T13:10:53;20.10;99.90
36384;DHT22;22418;51.210;6.976;2023-07-31T13:13:23;20.10;99.90
36384;DHT22;22418;51.210;6.976;2023-07-31T13:15:54;20.30;99.90
36384;DHT22;22418;51.210;6.976;2023-07-31T13:18:24;20.40;99.90
36384;DHT22;22418;51.210;6.976;2023-07-31T13:20:55;20.50;99.90
36384;DHT22;22418;51.210;6.976;2023-07-31T13:23:25;20.40;99.90
36384;DHT22;22418;51.210;6.976;2023-07-31T13:25:55;20.50;99.90
36384;DHT22;22418;51.210;6.976;2023-07-31T13:28:26;20.40;99.90
36384;DHT22;22418;51.210;6.976;2023-07-31T13:30:56;20.30;99.90
36384;DHT22;22418;51.210;6.976;2023-07-31T13:33:27;20.20;99.90
36384;DHT22;22418;51.210;6.976;2023-07-31T13:35:57;20.10;99.90
36384;DHT22;22418;51.210;6.976;2023-07-31T13:38:28;20.00;99.90
36384;DHT22;22418;51.210;6.976;2023-07-31T13:40:58;20.00;99.90
36384;DHT22;22418;51.210;6.976;2023-07-31T13:43:29;20.20;99.90
36384;DHT22;22418;51.210;6.976;2023-07-31T13:45:59;20.40;99.90
36384;DHT22;22418;51.210;6.976;2023-07-31T13:48:36;20.50;99.90
36384;DHT22;22418;51.210;6.976;2023-07-31T13:51:07;20.60;99.90
36384;DHT22;22418;51.210;6.976;2023-07-31T13:53:37;20.70;99.90
36384;DHT22;22418;51.210;6.976;2023-07-31T13:56:08;20.80;99.90
36384;DHT22;22418;51.210;6.976;2023-07-31T13:58:38;20.90;99.90
36384;DHT22;22418;51.210;6.976;2023-07-31T14:01:09;21.00;99.90
36384;DHT22;22418;51.210;6.976;2023-07-31T14:03:39;21.00;99.90
36384;DHT22;22418;51.210;6.976;2023-07-31T14:06:10;20.90;99.90
36384;DHT22;22418;51.210;6.976;2023-07-31T14:08:40;20.90;99.90
36384;DHT22;22418;51.210;6.976;2023-07-31T14:11:10;20.90;99.90
36384;DHT22;22418;51.210;6.976;2023-07-31T14:13:41;20.80;99.90
36384;DHT22;22418;51.210;6.976;2023-07-31T14:16:12;20.70;99.90
36384;DHT22;22418;51.210;6.976;2023-07-31T14:18:42;20.50;99.90
36384;DHT22;22418;51.210;6.976;2023-07-31T14:21:13;20.40;99.90
36384;DHT22;22418;51.210;6.976;2023-07-31T14:23:43;20.30;99.90
36384;DHT22;22418;51.210;6.976;2023-07-31T14:26:14;20.20;99.90
36384;DHT22;22418;51.210;6.976;2023-07-31T14:28:44;20.20;99.90
36384;DHT22;22418;51.210;6.976;2023-07-31T14:31:15;20.10;99.90
36384;DHT22;22418;51.210;6.976;2023-07-31T14:33:45;20.00;99.90
36384;DHT22;22418;51.210;6.976;2023-07-31T14:36:16;20.10;99.90
36384;DHT22;22418;51.210;6.976;2023-07-31T14:38:46;20.00;99.90
36384;DHT22;22418;51.210;6.976;2023-07-31T14:41:17;20.00;99.90
36384;DHT22;22418;51.210;6.976;2023-07-31T14:43:47;20.00;99.90
36384;DHT22;22418;51.210;6.976;2023-07-31T14:46:17;20.00;99.90
36384;DHT22;22418;51.210;6.976;2023-07-31T14:48:48;20.00;99.90
36384;DHT22;22418;51.210;6.976;2023-07-31T14:51:18;20.00;99.90
36384;DHT22;22418;51.210;6.976;2023-07-31T14:53:49;20.10;99.90
36384;DHT22;22418;51.210;6.976;2023-07-31T14:56:19;20.20;99.90
36384;DHT22;22418;51.210;6.976;2023-07-31T14:58:50;20.30;99.90
36384;DHT22;22418;51.210;6.976;2023-07-31T15:01:20;20.40;99.90
36384;DHT22;22418;51.210;6.976;2023-07-31T15:03:51;20.40;99.90
36384;DHT22;22418;51.210;6.976;2023-07-31T15:06:21;20.40;99.90
36384;DHT22;22418;51.210;6.976;2023-07-31T15:08:52;20.40;99.90
36384;DHT22;22418;51.210;6.976;2023-07-31T15:11:22;20.50;99.90
36384;DHT22;22418;51.210;6.976;2023-07-31T15:13:53;20.40;99.90
36384;DHT22;22418;51.210;6.976;2023-07-31T15:16:23;20.40;99.90
36384;DHT22;22418;51.210;6.976;2023-07-31T15:18:53;20.30;99.90
36384;DHT22;22418;51.210;6.976;2023-07-31T15:21:24;20.30;99.90
36384;DHT22;22418;51.210;6.976;2023-07-31T15:23:55;20.30;99.90
36384;DHT22;22418;51.210;6.976;2023-07-31T15:26:25;20.30;99.90
36384;DHT22;22418;51.210;6.976;2023-07-31T15:29:03;20.10;99.90
36384;DHT22;22418;51.210;6.976;2023-07-31T15:31:35;20.20;99.90
36384;DHT22;22418;51.210;6.976;2023-07-31T15:34:06;20.20;99.90
36384;DHT22;22418;51.210;6.976;2023-07-31T15:36:36;20.10;99.90
36384;DHT22;22418;51.210;6.976;2023-07-31T15:39:07;20.10;99.90
36384;DHT22;22418;51.210;6.976;2023-07-31T15:41:40;20.10;99.90
36384;DHT22;22418;51.210;6.976;2023-07-31T15:44:11;20.10;99.90
36384;DHT22;22418;51.210;6.976;2023-07-31T15:46:41;20.10;99.90
36384;DHT22;22418;51.210;6.976;2023-07-31T15:49:12;20.10;99.90
36384;DHT22;22418;51.210;6.976;2023-07-31T15:51:43;20.00;99.90
36384;DHT22;22418;51.210;6.976;2023-07-31T15:54:14;20.00;99.90
36384;DHT22;22418;51.210;6.976;2023-07-31T15:56:44;20.10;99.90
36384;DHT22;22418;51.210;6.976;2023-07-31T15:59:15;20.10;99.90
36384;DHT22;22418;51.210;6.976;2023-07-31T16:01:45;19.90;99.90
36384;DHT22;22418;51.210;6.976;2023-07-31T16:04:16;19.90;99.90